Terminal Aerodrome Forecast
Issued by NWS Green Bay, WI

Home | Current Version | Previous Version | Text Only | Print | Product List | Glossary On
Versions: 1 2 3 4 5 6 7 8 9 10 11 12 13 14 15 16 17
000
FTUS43 KGRB 011132
TAFGRB
TAF
KGRB 011132Z 0112/0212 04010KT P6SM -SHRA SCT045 BKN060
     FM011600 05010G18KT P6SM VCSH BKN050
     FM011900 05012G22KT P6SM SCT050 BKN090
     FM012300 04009KT P6SM SCT100
     FM020900 35005KT P6SM SKC=

USA.gov is the U.S. government's official web portal to all federal, state and local government web resources and services.